Time;durP1;ratioP1;P1;durP2;ratioP2;P2;SDS_P1;SDS_P2;PMS_P1;PMS_P2;Temp;Humidity;BMP_temperature;BMP_pressure;BME280_temperature;BME280_humidity;BME280_pressure;Samples;Min_cycle;Max_cycle;Signal;HPM_P1;HPM_P2
2022/08/10 00:00:19;;;;;;;7.00;2.80;;;21.90;49.10;;;;;;4974613;28;20219;-84
2022/08/10 00:02:10;;;;;;;2.97;2.47;;;21.90;38.20;;;;;;4974250;28;20199;-83
2022/08/10 00:04:36;;;;;;;4.33;2.27;;;21.90;39.00;;;;;;4971996;28;20448;-83
2022/08/10 00:07:04;;;;;;;3.97;2.10;;;21.90;40.70;;;;;;4975020;28;20213;-83
2022/08/10 00:09:29;;;;;;;2.77;2.23;;;21.90;41.10;;;;;;4973862;28;20192;-83
2022/08/10 00:11:55;;;;;;;7.63;2.00;;;21.80;41.70;;;;;;4973804;28;20510;-84
2022/08/10 00:14:20;;;;;;;5.30;2.20;;;21.80;43.00;;;;;;4976035;28;20220;-84
2022/08/10 00:16:46;;;;;;;3.40;2.40;;;21.80;43.10;;;;;;4973900;28;20184;-83
2022/08/10 00:19:12;;;;;;;3.90;2.10;;;21.80;43.50;;;;;;4974975;28;20630;-83
2022/08/10 00:21:37;;;;;;;4.17;2.13;;;21.80;44.70;;;;;;4974827;28;20207;-83
2022/08/10 00:24:03;;;;;;;4.00;2.27;;;21.80;45.60;;;;;;4976924;28;20188;-83
2022/08/10 00:26:29;;;;;;;3.00;2.57;;;21.70;59.30;;;;;;4974411;28;20237;-83
2022/08/10 00:28:54;;;;;;;6.60;2.30;;;21.70;47.90;;;;;;4975729;28;20624;-83
2022/08/10 00:31:20;;;;;;;2.77;1.90;;;21.70;48.50;;;;;;4975714;28;20223;-83
2022/08/10 00:33:45;;;;;;;4.40;2.27;;;21.60;49.80;;;;;;4956611;28;20211;-83
2022/08/10 00:36:11;;;;;;;5.93;2.30;;;21.60;50.80;;;;;;4974332;28;20209;-82
2022/08/10 00:38:39;;;;;;;4.23;2.17;;;21.60;51.60;;;;;;4976184;28;20223;-83
2022/08/10 00:41:05;;;;;;;3.63;2.00;;;21.60;52.80;;;;;;4978363;28;20184;-83
2022/08/10 00:43:30;;;;;;;6.50;2.13;;;21.50;52.20;;;;;;4978597;28;20523;-84
2022/08/10 00:45:56;;;;;;;5.93;2.30;;;21.50;52.90;;;;;;4976689;28;20655;-82
2022/08/10 00:48:21;;;;;;;4.97;2.37;;;21.50;54.20;;;;;;4962782;28;20196;-83
2022/08/10 00:50:48;;;;;;;3.03;2.20;;;21.40;55.20;;;;;;4979105;28;20214;-83
2022/08/10 00:53:14;;;;;;;4.43;1.87;;;21.40;56.00;;;;;;4979513;28;20195;-83
2022/08/10 00:55:40;;;;;;;3.27;2.60;;;21.30;55.80;;;;;;4980147;28;20953;-83
2022/08/10 00:58:07;;;;;;;3.20;2.70;;;21.30;57.00;;;;;;4978985;28;20204;-82
2022/08/10 01:00:33;;;;;;;2.80;1.97;;;21.30;58.40;;;;;;4960273;28;20455;-82
2022/08/10 01:02:58;;;;;;;5.30;2.20;;;21.30;59.10;;;;;;4976948;28;20453;-83
2022/08/10 01:05:25;;;;;;;10.27;2.57;;;21.20;59.70;;;;;;4961501;28;20225;-83
2022/08/10 01:08:22;;;;;;;4.10;2.20;;;21.20;60.80;;;;;;4977050;28;20226;-83
2022/08/10 01:11:03;;;;;;;3.93;2.00;;;21.20;62.50;;;;;;4977240;28;20464;-83
2022/08/10 01:13:47;;;;;;;4.47;2.40;;;21.10;63.40;;;;;;4961846;28;20474;-83
2022/08/10 01:16:29;;;;;;;5.50;2.83;;;21.10;65.00;;;;;;4981261;28;21149;-82
2022/08/10 01:19:23;;;;;;;5.37;2.50;;;21.00;66.20;;;;;;4962267;28;20438;-82
2022/08/10 01:22:03;;;;;;;4.67;2.57;;;21.00;67.60;;;;;;4978220;28;20505;-83
2022/08/10 01:24:40;;;;;;;3.37;2.33;;;20.90;69.10;;;;;;4979851;28;20466;-83
2022/08/10 01:27:50;;;;;;;3.53;2.17;;;20.90;71.60;;;;;;4976916;28;21374;-82
2022/08/10 01:30:19;;;;;;;3.70;2.23;;;20.80;73.60;;;;;;4974712;28;20469;-83
2022/08/10 01:32:47;;;;;;;5.70;2.60;;;20.80;75.50;;;;;;4977286;28;20454;-84
2022/08/10 01:35:31;;;;;;;3.67;2.53;;;20.70;77.20;;;;;;4978669;28;20493;-83
2022/08/10 01:38:18;;;;;;;4.30;2.23;;;20.60;81.00;;;;;;4975728;28;20484;-83
2022/08/10 01:40:52;;;;;;;5.93;2.27;;;20.50;85.00;;;;;;4977438;28;20545;-82
2022/08/10 01:43:24;;;;;;;5.43;2.97;;;20.50;86.60;;;;;;4978233;28;20518;-83
2022/08/10 01:45:55;;;;;;;3.03;2.53;;;20.40;90.10;;;;;;4960892;28;20461;-83
2022/08/10 01:48:34;;;;;;;2.93;2.10;;;20.40;98.90;;;;;;4959811;28;20502;-83
2022/08/10 01:51:00;;;;;;;3.80;2.40;;;20.40;92.50;;;;;;4957675;28;20464;-82
2022/08/10 01:53:34;;;;;;;5.00;2.80;;;20.30;94.90;;;;;;4978138;28;20465;-83
2022/08/10 01:56:01;;;;;;;3.20;2.27;;;20.20;96.20;;;;;;4960936;28;20492;-81
2022/08/10 01:58:28;;;;;;;2.77;2.30;;;20.20;97.80;;;;;;4976085;28;20434;-82
2022/08/10 02:00:56;;;;;;;2.33;2.10;;;20.10;99.90;;;;;;4975658;28;20453;-82
2022/08/10 02:03:24;;;;;;;4.20;2.50;;;20.10;99.90;;;;;;4976848;28;20440;-82
2022/08/10 02:05:54;;;;;;;3.43;2.60;;;20.00;99.90;;;;;;4974302;28;20481;-83
2022/08/10 02:08:22;;;;;;;3.13;2.20;;;20.10;99.90;;;;;;4976900;28;20447;-83
2022/08/10 02:10:51;;;;;;;3.60;2.50;;;20.00;99.90;;;;;;4960233;28;20503;-83
2022/08/10 02:13:18;;;;;;;5.07;2.37;;;20.00;99.90;;;;;;4977146;28;20469;-82
2022/08/10 02:15:46;;;;;;;5.47;2.53;;;20.00;99.90;;;;;;4976554;28;20545;-83
2022/08/10 02:18:12;;;;;;;5.10;3.50;;;20.00;99.90;;;;;;4976118;28;20489;-82
2022/08/10 02:20:51;;;;;;;3.93;2.60;;;20.00;99.90;;;;;;4974555;28;20441;-83
2022/08/10 02:23:18;;;;;;;6.33;2.37;;;20.00;99.90;;;;;;4978383;28;21303;-83
2022/08/10 02:25:44;;;;;;;5.03;2.97;;;19.90;99.90;;;;;;4976209;28;20474;-83
2022/08/10 02:28:17;;;;;;;4.97;2.50;;;20.00;99.90;;;;;;4976659;28;20452;-83
2022/08/10 02:30:44;;;;;;;3.13;2.77;;;19.90;99.90;;;;;;4960509;28;20540;-83
2022/08/10 02:33:10;;;;;;;4.00;2.43;;;19.90;99.90;;;;;;4978454;28;20448;-83
2022/08/10 02:35:40;;;;;;;4.13;2.40;;;19.90;99.90;;;;;;4976462;28;20457;-82
2022/08/10 02:38:08;;;;;;;5.10;2.60;;;19.90;99.90;;;;;;4978058;28;20442;-84
2022/08/10 02:40:40;;;;;;;2.97;2.50;;;19.90;99.90;;;;;;4977720;28;20838;-82
2022/08/10 02:43:20;;;;;;;3.37;3.07;;;19.80;99.90;;;;;;4976701;28;20466;-83
2022/08/10 02:45:51;;;;;;;2.83;2.30;;;19.80;99.90;;;;;;4973822;28;20581;-83
2022/08/10 02:48:41;;;;;;;6.40;2.97;;;19.80;99.90;;;;;;4975068;28;20460;-82
2022/08/10 02:51:23;;;;;;;4.17;3.30;;;19.70;99.90;;;;;;4974701;28;20493;-80
2022/08/10 02:53:54;;;;;;;3.33;2.47;;;19.60;99.90;;;;;;4974247;28;20498;-81
2022/08/10 02:56:59;;;;;;;3.03;2.73;;;19.60;99.90;;;;;;4956817;28;20445;-82
2022/08/10 02:59:29;;;;;;;4.03;3.20;;;19.60;99.90;;;;;;4967750;28;20526;-81
2022/08/10 03:02:01;;;;;;;5.77;3.20;;;19.50;99.90;;;;;;4958441;28;20478;-84
2022/08/10 03:04:34;;;;;;;3.80;2.60;;;19.50;99.90;;;;;;4978169;28;20485;-83
2022/08/10 03:07:03;;;;;;;2.93;2.57;;;19.40;99.90;;;;;;4977765;28;20449;-83
2022/08/10 03:09:32;;;;;;;4.30;2.90;;;19.30;99.90;;;;;;4976136;28;20573;-83
2022/08/10 03:11:59;;;;;;;3.10;2.50;;;19.30;99.90;;;;;;4974931;28;20547;-82
2022/08/10 03:14:25;;;;;;;5.17;3.13;;;19.20;99.90;;;;;;4975243;28;20496;-83
2022/08/10 03:16:53;;;;;;;7.20;2.87;;;19.20;99.90;;;;;;4958344;28;20444;-83
2022/08/10 03:19:20;;;;;;;3.70;3.27;;;19.20;99.90;;;;;;4976485;28;20440;-82
2022/08/10 03:21:50;;;;;;;3.50;2.70;;;19.20;99.90;;;;;;4974916;28;20480;-83
2022/08/10 03:24:21;;;;;;;6.10;3.20;;;19.10;99.90;;;;;;4974580;28;20455;-82
2022/08/10 03:26:51;;;;;;;5.10;3.30;;;19.10;99.90;;;;;;4975900;28;20471;-83
2022/08/10 03:29:18;;;;;;;3.70;3.23;;;19.10;99.90;;;;;;4974187;28;20444;-83
2022/08/10 03:31:45;;;;;;;5.00;2.80;;;19.00;99.90;;;;;;4976323;28;20474;-84
2022/08/10 03:34:12;;;;;;;4.70;2.93;;;19.00;99.90;;;;;;4974790;28;20477;-83
2022/08/10 03:36:38;;;;;;;3.20;2.50;;;19.00;99.90;;;;;;4974657;28;20475;-83
2022/08/10 03:39:03;;;;;;;3.60;2.57;;;19.00;99.90;;;;;;4975961;28;20465;-82
2022/08/10 03:41:35;;;;;;;6.70;3.23;;;19.00;99.90;;;;;;4977526;28;20211;-83
2022/08/10 03:44:03;;;;;;;3.97;3.03;;;19.00;99.90;;;;;;4976613;28;20204;-83
2022/08/10 03:46:31;;;;;;;4.93;2.77;;;19.00;99.90;;;;;;4979877;28;20449;-82
2022/08/10 03:49:01;;;;;;;4.10;3.23;;;19.00;99.90;;;;;;4973647;28;20444;-83
2022/08/10 03:51:27;;;;;;;7.80;3.07;;;19.00;99.90;;;;;;4974248;28;20441;-82
2022/08/10 03:53:53;;;;;;;4.43;3.20;;;19.00;99.90;;;;;;4954520;28;20456;-82
2022/08/10 03:56:20;;;;;;;6.30;2.90;;;19.00;99.90;;;;;;4971915;28;20527;-82
2022/08/10 03:58:46;;;;;;;3.53;2.67;;;18.90;99.90;;;;;;4971348;28;20815;-82
2022/08/10 04:01:14;;;;;;;4.83;3.30;;;18.90;99.90;;;;;;4972797;28;20460;-82
2022/08/10 04:03:40;;;;;;;6.87;3.57;;;18.90;99.90;;;;;;4955050;28;20468;-83
2022/08/10 04:06:06;;;;;;;4.67;3.03;;;18.90;99.90;;;;;;4953659;28;20509;-82
2022/08/10 04:08:32;;;;;;;4.73;3.47;;;18.90;99.90;;;;;;4971995;28;20306;-82
2022/08/10 04:10:57;;;;;;;5.10;3.70;;;18.80;99.90;;;;;;4971529;28;20539;-82
2022/08/10 04:13:23;;;;;;;4.10;3.33;;;18.80;99.90;;;;;;4955672;28;20512;-83
2022/08/10 04:15:48;;;;;;;4.33;3.57;;;18.80;99.90;;;;;;4974871;28;20201;-83
2022/08/10 04:18:14;;;;;;;4.47;3.50;;;18.80;99.90;;;;;;4975673;28;20223;-82
2022/08/10 04:20:46;;;;;;;6.80;3.40;;;18.80;99.90;;;;;;4976615;28;20209;-82
2022/08/10 04:23:17;;;;;;;4.60;3.23;;;18.80;99.90;;;;;;4976267;28;20541;-82
2022/08/10 04:25:43;;;;;;;9.10;3.63;;;18.90;99.90;;;;;;4958448;28;20464;-82
2022/08/10 04:28:10;;;;;;;5.90;3.30;;;18.90;99.90;;;;;;4976076;28;20450;-82
2022/08/10 04:30:36;;;;;;;4.10;3.60;;;18.90;99.90;;;;;;4959862;28;20464;-82
2022/08/10 04:33:04;;;;;;;5.70;3.47;;;18.90;99.90;;;;;;4977160;28;21075;-81
2022/08/10 04:35:31;;;;;;;7.60;4.10;;;18.90;99.90;;;;;;4958441;28;20467;-80
2022/08/10 04:37:59;;;;;;;4.70;3.40;;;18.90;99.90;;;;;;4975455;28;20503;-81
2022/08/10 04:40:27;;;;;;;3.97;3.43;;;19.00;99.90;;;;;;4979478;28;20446;-81
2022/08/10 04:42:53;;;;;;;4.33;3.40;;;19.00;99.90;;;;;;4977034;28;20477;-83
2022/08/10 04:45:19;;;;;;;4.33;3.23;;;19.00;99.90;;;;;;4944636;28;20461;-83
2022/08/10 04:47:45;;;;;;;6.60;3.70;;;19.10;99.90;;;;;;4977368;28;20193;-81
2022/08/10 04:50:10;;;;;;;6.27;3.40;;;19.10;99.90;;;;;;4977864;28;20183;-81
2022/08/10 04:52:36;;;;;;;4.00;3.60;;;19.20;99.90;;;;;;4976965;28;20193;-81
2022/08/10 04:55:02;;;;;;;4.40;4.00;;;19.20;99.90;;;;;;4976125;28;20216;-81
2022/08/10 04:57:27;;;;;;;4.77;3.67;;;19.30;99.90;;;;;;4959895;28;20198;-79
2022/08/10 04:59:53;;;;;;;5.30;3.37;;;19.30;99.90;;;;;;4976762;28;20273;-81
2022/08/10 05:02:18;;;;;;;5.30;3.53;;;19.40;99.90;;;;;;4977582;28;20209;-84
2022/08/10 05:04:44;;;;;;;5.20;3.70;;;19.50;99.90;;;;;;4961628;28;20205;-82
2022/08/10 05:07:12;;;;;;;4.33;3.43;;;19.60;99.90;;;;;;4976368;28;20202;-81
2022/08/10 05:09:39;;;;;;;6.90;4.43;;;19.60;99.90;;;;;;4977079;28;20197;-81
2022/08/10 05:12:06;;;;;;;4.43;3.33;;;19.70;99.90;;;;;;4974797;28;20474;-79
2022/08/10 05:14:31;;;;;;;6.33;4.10;;;19.80;99.90;;;;;;4976593;28;20814;-82
2022/08/10 05:16:57;;;;;;;3.90;3.50;;;19.90;99.90;;;;;;4958786;28;20452;-82
2022/08/10 05:19:23;;;;;;;4.30;3.90;;;19.90;99.90;;;;;;4978458;28;20273;-84
2022/08/10 05:21:48;;;;;;;3.80;3.30;;;20.00;99.90;;;;;;4978863;28;20207;-81
2022/08/10 05:24:14;;;;;;;5.33;3.27;;;20.00;99.90;;;;;;4977250;28;20697;-82
2022/08/10 05:26:39;;;;;;;10.67;4.00;;;20.10;99.90;;;;;;4982378;28;20663;-84
2022/08/10 05:29:05;;;;;;;5.30;4.03;;;20.10;99.90;;;;;;4975930;28;20260;-82
2022/08/10 05:31:31;;;;;;;4.47;3.80;;;20.30;99.90;;;;;;4960278;28;20684;-81
2022/08/10 05:33:56;;;;;;;5.07;3.40;;;20.40;99.90;;;;;;4978342;28;20556;-82
2022/08/10 05:36:23;;;;;;;4.53;3.80;;;20.80;99.90;;;;;;4959305;28;20189;-84
2022/08/10 05:38:49;;;;;;;6.20;3.50;;;21.70;99.90;;;;;;4977975;28;20192;-83
2022/08/10 05:41:15;;;;;;;6.17;2.90;;;24.70;99.90;;;;;;4985925;28;20478;-85
2022/08/10 05:43:42;;;;;;;6.40;3.00;;;28.40;99.90;;;;;;4979973;28;20885;-85
2022/08/10 05:46:08;;;;;;;4.20;3.40;;;31.30;99.90;;;;;;4977099;28;20477;-85
2022/08/10 05:48:35;;;;;;;5.70;3.10;;;32.80;99.90;;;;;;4976225;28;20468;-84
2022/08/10 05:51:01;;;;;;;6.90;2.97;;;33.60;99.90;;;;;;4956831;28;20215;-86
2022/08/10 05:53:27;;;;;;;4.63;3.00;;;35.50;99.90;;;;;;4959605;28;20466;-85
2022/08/10 05:55:54;;;;;;;3.33;2.20;;;37.80;99.60;;;;;;4972632;28;20838;-85
2022/08/10 05:58:19;;;;;;;5.33;3.00;;;39.60;93.50;;;;;;4975170;28;20185;-85
2022/08/10 06:00:52;;;;;;;4.83;2.70;;;41.30;83.30;;;;;;4960183;28;20839;-85
2022/08/10 06:03:25;;;;;;;6.40;2.43;;;41.30;68.00;;;;;;4972334;28;20195;-86
2022/08/10 06:05:54;;;;;;;3.60;2.30;;;42.10;58.10;;;;;;4975893;28;20479;-86
2022/08/10 06:08:22;;;;;;;4.23;2.50;;;42.40;50.50;;;;;;4969733;28;20443;-86
2022/08/10 06:10:52;;;;;;;7.47;2.20;;;43.40;45.30;;;;;;4957824;28;20439;-88
2022/08/10 06:16:06;;;;;;;6.00;2.13;;;47.10;37.20;;;;;;4975880;28;20936;-87
2022/08/10 06:18:32;;;;;;;6.40;2.03;;;49.50;31.80;;;;;;4966773;28;20431;-85
2022/08/10 06:20:59;;;;;;;5.70;2.57;;;51.30;27.70;;;;;;4955886;28;20439;-84
2022/08/10 06:23:27;;;;;;;4.18;2.75;;;52.80;23.10;;;;;;4957079;28;20195;-85
2022/08/10 06:25:54;;;;;;;4.47;1.80;;;54.70;20.10;;;;;;4972027;28;20580;-85
2022/08/10 06:28:21;;;;;;;2.60;1.90;;;54.20;13.80;;;;;;4952140;28;20191;-86
2022/08/10 06:30:48;;;;;;;3.33;2.00;;;53.00;7.50;;;;;;4972265;28;20204;-85
2022/08/10 06:33:14;;;;;;;4.13;2.40;;;52.00;3.00;;;;;;4975138;28;20222;-85
2022/08/10 06:35:40;;;;;;;3.60;2.13;;;51.10;1.00;;;;;;4975123;28;20495;-87
2022/08/10 06:38:07;;;;;;;4.20;2.20;;;52.80;1.00;;;;;;4970430;28;20186;-87
2022/08/10 06:40:39;;;;;;;3.60;2.15;;;53.70;1.00;;;;;;4972565;28;20219;-86
2022/08/10 06:43:09;;;;;;;5.25;2.03;;;54.70;1.00;;;;;;4972586;28;20718;-86
2022/08/10 06:45:41;;;;;;;3.97;2.35;;;55.40;1.00;;;;;;4967376;28;20802;-86
2022/08/10 06:48:19;;;;;;;3.15;1.73;;;56.10;1.00;;;;;;4953049;28;20195;-86
2022/08/10 06:50:50;;;;;;;4.40;2.20;;;57.10;1.00;;;;;;4972538;28;20262;-84
2022/08/10 06:53:20;;;;;;;3.70;1.95;;;57.90;1.00;;;;;;4970038;28;20188;-84
2022/08/10 06:55:55;;;;;;;6.85;2.10;;;58.00;1.00;;;;;;4955775;28;20680;-85
2022/08/10 06:58:25;;;;;;;3.83;1.83;;;57.90;1.00;;;;;;4970876;28;20731;-85
2022/08/10 07:00:52;;;;;;;6.55;1.80;;;57.90;1.00;;;;;;4955415;28;20184;-85
2022/08/10 07:03:19;;;;;;;4.05;1.92;;;57.60;1.00;;;;;;4969469;28;20306;-85
2022/08/10 07:05:49;;;;;;;4.20;2.00;;;57.70;1.00;;;;;;4969887;28;20800;-86
2022/08/10 07:08:18;;;;;;;7.97;2.53;;;57.30;1.00;;;;;;4973032;28;20275;-85
2022/08/10 07:10:46;;;;;;;9.70;2.30;;;56.80;1.00;;;;;;4971730;28;20215;-84
2022/08/10 07:13:15;;;;;;;7.40;2.30;;;56.90;1.00;;;;;;4971301;28;20199;-85
2022/08/10 07:15:43;;;;;;;6.03;2.25;;;57.70;1.00;;;;;;4954390;28;20235;-86
2022/08/10 07:18:10;;;;;;;7.47;2.30;;;58.60;1.00;;;;;;4971906;28;20172;-86
2022/08/10 07:20:36;;;;;;;10.32;3.08;;;59.10;1.00;;;;;;4954008;28;20287;-85
2022/08/10 07:23:04;;;;;;;15.10;2.92;;;59.00;1.00;;;;;;4953381;28;20191;-86
2022/08/10 07:25:31;;;;;;;6.47;2.78;;;59.40;1.00;;;;;;4974461;28;20239;-86
2022/08/10 07:27:59;;;;;;;6.22;2.40;;;59.50;1.00;;;;;;4969225;28;20234;-86
2022/08/10 07:30:29;;;;;;;5.35;2.45;;;58.70;1.00;;;;;;4969595;28;20549;-84
2022/08/10 07:33:28;;;;;;;4.55;2.40;;;58.20;1.00;;;;;;4953734;28;20192;-85
2022/08/10 07:35:56;;;;;;;5.68;2.08;;;58.10;1.00;;;;;;4971029;28;20326;-86
2022/08/10 07:38:28;;;;;;;5.57;2.60;;;58.30;1.00;;;;;;4971289;28;20274;-84
2022/08/10 07:40:54;;;;;;;3.80;2.33;;;56.70;1.00;;;;;;4972567;28;20188;-83
2022/08/10 07:43:24;;;;;;;3.40;2.20;;;55.50;1.00;;;;;;4971032;28;20215;-83
2022/08/10 07:45:50;;;;;;;8.70;2.60;;;55.00;1.00;;;;;;4973679;28;20290;-84
2022/08/10 07:48:28;;;;;;;7.33;2.47;;;54.50;1.00;;;;;;4955051;28;20224;-84
2022/08/10 07:50:58;;;;;;;8.23;2.97;;;54.00;1.00;;;;;;4956024;28;20236;-84
2022/08/10 07:53:31;;;;;;;5.73;2.60;;;54.00;1.00;;;;;;4951493;28;20574;-84
2022/08/10 07:55:59;;;;;;;5.53;2.57;;;54.20;1.00;;;;;;4966524;28;20727;-84
2022/08/10 07:58:29;;;;;;;4.80;2.20;;;54.00;1.00;;;;;;4971110;28;20183;-84
2022/08/10 08:00:57;;;;;;;5.40;2.47;;;53.90;1.00;;;;;;4953393;28;20198;-84
2022/08/10 08:03:25;;;;;;;6.60;2.70;;;53.60;1.00;;;;;;4971072;28;20562;-85
2022/08/10 08:05:52;;;;;;;12.17;3.77;;;53.50;1.00;;;;;;4952438;28;20699;-85
2022/08/10 08:08:20;;;;;;;10.30;3.30;;;53.40;1.00;;;;;;4958894;28;20676;-85
2022/08/10 08:10:46;;;;;;;11.43;3.27;;;53.40;1.00;;;;;;4964857;28;20285;-85
2022/08/10 08:13:13;;;;;;;17.63;3.40;;;53.60;1.00;;;;;;4965981;28;20187;-85
2022/08/10 08:15:40;;;;;;;11.27;3.20;;;53.80;1.00;;;;;;4953088;28;20263;-85
2022/08/10 08:18:08;;;;;;;19.80;3.47;;;54.10;1.00;;;;;;4971176;28;20190;-85
2022/08/10 08:20:34;;;;;;;13.23;3.60;;;53.90;1.00;;;;;;4967818;28;20184;-85
2022/08/10 08:23:00;;;;;;;11.63;2.87;;;53.70;1.00;;;;;;4948990;28;20188;-85
2022/08/10 08:25:26;;;;;;;8.03;2.97;;;53.60;1.00;;;;;;4971226;28;20207;-85
2022/08/10 08:27:55;;;;;;;12.07;3.10;;;53.60;1.00;;;;;;4982260;28;20229;-85
2022/08/10 08:30:22;;;;;;;8.20;3.23;;;53.70;1.00;;;;;;4945579;28;20652;-85
2022/08/10 08:32:49;;;;;;;9.20;2.90;;;53.60;1.00;;;;;;4949852;28;20690;-85
2022/08/10 08:35:18;;;;;;;9.27;3.60;;;53.80;1.00;;;;;;4952361;28;20688;-85
2022/08/10 08:37:46;;;;;;;6.80;3.00;;;54.10;1.00;;;;;;4970197;28;20191;-85
2022/08/10 08:40:46;;;;;;;17.17;3.13;;;54.20;1.00;;;;;;4970544;28;20184;-85
2022/08/10 08:43:44;;;;;;;8.27;3.20;;;54.20;1.00;;;;;;4967313;28;20195;-86
2022/08/10 08:46:37;;;;;;;8.20;3.30;;;53.80;1.00;;;;;;4927872;28;20731;-85
2022/08/10 08:49:21;;;;;;;4.67;3.03;;;54.10;1.00;;;;;;4956500;28;20196;-83
2022/08/10 08:51:53;;;;;;;10.57;3.63;;;54.10;1.00;;;;;;4955114;28;20684;-84
2022/08/10 08:54:47;;;;;;;5.63;3.23;;;53.30;1.00;;;;;;4973601;28;20274;-83
2022/08/10 08:57:29;;;;;;;9.53;3.00;;;52.90;1.00;;;;;;4970934;28;20539;-85
2022/08/10 09:00:36;;;;;;;7.90;2.43;;;53.10;1.00;;;;;;4957427;28;20473;-85
2022/08/10 09:03:40;;;;;;;5.43;2.43;;;52.70;1.00;;;;;;4959800;28;20490;-86
2022/08/10 09:06:43;;;;;;;5.27;2.50;;;52.90;1.00;;;;;;4959207;28;20326;-85
2022/08/10 09:09:46;;;;;;;9.33;3.00;;;53.20;1.00;;;;;;4979261;28;20274;-84
2022/08/10 09:12:33;;;;;;;5.40;3.20;;;53.00;1.00;;;;;;4979033;28;20211;-84
2022/08/10 09:15:14;;;;;;;10.80;3.00;;;52.70;1.00;;;;;;4987114;28;20454;-86
2022/08/10 09:18:07;;;;;;;6.80;2.77;;;53.10;1.00;;;;;;4958852;28;20973;-84
2022/08/10 09:20:56;;;;;;;5.07;2.60;;;52.60;1.00;;;;;;4959538;28;20485;-84
2022/08/10 09:23:33;;;;;;;12.63;3.43;;;52.60;1.00;;;;;;4957595;28;20474;-85
2022/08/10 09:26:07;;;;;;;7.07;2.83;;;52.60;1.00;;;;;;4975095;28;20496;-85
2022/08/10 09:28:39;;;;;;;5.50;2.50;;;52.70;1.00;;;;;;4968945;28;20431;-84
2022/08/10 09:31:10;;;;;;;9.13;3.10;;;52.50;1.00;;;;;;4974925;28;20462;-85
2022/08/10 09:33:47;;;;;;;6.53;3.23;;;52.20;1.00;;;;;;4972453;28;21014;-84
2022/08/10 09:36:31;;;;;;;5.20;2.60;;;52.20;1.00;;;;;;4975292;28;20467;-85
2022/08/10 09:39:01;;;;;;;6.70;3.27;;;51.40;1.00;;;;;;4974063;28;20443;-85
2022/08/10 09:41:57;;;;;;;4.57;2.80;;;51.30;1.00;;;;;;4973837;28;20475;-84
2022/08/10 09:44:34;;;;;;;5.17;2.80;;;51.40;1.00;;;;;;4972944;28;20459;-85
2022/08/10 09:47:36;;;;;;;6.30;2.90;;;51.50;1.00;;;;;;4972785;28;20946;-85
2022/08/10 09:50:23;;;;;;;6.53;2.60;;;51.20;1.00;;;;;;4973188;28;20499;-84
2022/08/10 09:53:00;;;;;;;9.53;2.70;;;51.50;1.00;;;;;;4975388;28;20862;-85
2022/08/10 09:55:44;;;;;;;4.40;2.60;;;51.50;1.00;;;;;;4974513;28;20451;-85
2022/08/10 09:58:34;;;;;;;8.00;2.87;;;51.20;1.00;;;;;;4972543;28;20445;-85
2022/08/10 10:01:19;;;;;;;9.00;3.60;;;51.10;1.00;;;;;;4974278;28;20438;-85
2022/08/10 10:04:05;;;;;;;6.53;2.90;;;50.60;1.00;;;;;;4972373;28;20439;-84
2022/08/10 10:06:50;;;;;;;4.80;2.40;;;50.40;1.00;;;;;;4975610;28;20478;-85
2022/08/10 10:09:35;;;;;;;4.97;3.00;;;50.00;1.00;;;;;;4973856;28;20478;-85
2022/08/10 10:12:05;;;;;;;5.03;3.07;;;49.90;1.00;;;;;;4975641;28;20534;-85
2022/08/10 10:15:20;;;;;;;11.50;2.73;;;50.00;1.00;;;;;;4970373;28;20546;-86
2022/08/10 10:18:12;;;;;;;4.80;2.40;;;49.90;1.00;;;;;;4972372;28;20458;-85
2022/08/10 10:20:51;;;;;;;3.30;2.03;;;50.00;1.00;;;;;;4970949;28;20555;-85
2022/08/10 10:23:54;;;;;;;8.13;2.83;;;49.60;1.00;;;;;;4973156;28;20497;-84
2022/08/10 10:26:57;;;;;;;2.80;2.37;;;49.30;1.00;;;;;;4956369;28;20437;-85
2022/08/10 10:29:48;;;;;;;8.57;3.00;;;49.80;1.00;;;;;;4973367;28;21021;-82
2022/08/10 10:32:16;;;;;;;5.23;2.30;;;50.20;1.00;;;;;;4973607;28;20467;-84
2022/08/10 10:35:00;;;;;;;3.90;2.20;;;50.20;1.00;;;;;;4955276;28;20463;-84
2022/08/10 10:37:28;;;;;;;4.10;2.30;;;50.00;1.00;;;;;;4974441;28;20453;-84
2022/08/10 10:39:55;;;;;;;4.00;2.10;;;49.40;1.00;;;;;;4956763;28;20431;-84
2022/08/10 10:42:48;;;;;;;4.27;2.33;;;49.00;1.00;;;;;;4975955;28;20446;-84
2022/08/10 10:45:17;;;;;;;5.70;2.73;;;49.30;1.00;;;;;;4957231;28;21127;-84
2022/08/10 10:48:01;;;;;;;5.80;2.43;;;49.30;1.00;;;;;;4965054;28;20446;-84
2022/08/10 10:50:40;;;;;;;3.17;2.40;;;48.80;1.00;;;;;;4977807;28;20533;-85
2022/08/10 10:53:23;;;;;;;3.53;2.57;;;48.50;1.00;;;;;;4970173;28;20463;-84
2022/08/10 10:55:55;;;;;;;4.70;2.50;;;48.40;1.00;;;;;;4971841;28;20447;-85
2022/08/10 10:58:29;;;;;;;6.80;3.07;;;48.50;1.00;;;;;;4959170;28;20466;-85
2022/08/10 11:01:22;;;;;;;2.80;2.20;;;48.60;1.00;;;;;;4974786;28;20465;-84
2022/08/10 11:04:06;;;;;;;5.80;2.40;;;49.10;1.00;;;;;;4955452;28;20439;-84
2022/08/10 11:07:11;;;;;;;6.27;2.53;;;48.60;1.00;;;;;;4956049;28;20469;-84
2022/08/10 11:09:48;;;;;;;6.73;2.23;;;47.60;1.00;;;;;;4959649;28;20943;-85
2022/08/10 11:12:35;;;;;;;7.17;2.07;;;47.30;1.00;;;;;;4972906;28;20474;-85
2022/08/10 11:15:07;;;;;;;3.90;2.20;;;47.00;1.00;;;;;;4971628;28;20450;-85
2022/08/10 11:17:51;;;;;;;6.17;2.70;;;47.30;1.00;;;;;;4970954;28;20430;-85
2022/08/10 11:20:37;;;;;;;5.97;2.60;;;47.80;1.00;;;;;;4971323;28;21274;-86
2022/08/10 11:23:27;;;;;;;5.67;2.90;;;47.70;1.00;;;;;;4971617;28;20581;-85
2022/08/10 11:26:40;;;;;;;6.27;2.43;;;47.20;1.00;;;;;;4972030;28;20451;-85
2022/08/10 11:29:14;;;;;;;5.57;2.40;;;46.50;1.00;;;;;;4875754;29;20448;-84
2022/08/10 11:32:01;;;;;;;6.97;2.50;;;46.40;1.00;;;;;;4874436;29;20872;-85
2022/08/10 11:34:40;;;;;;;9.73;2.73;;;46.60;1.00;;;;;;4943401;28;20467;-85
2022/08/10 11:37:20;;;;;;;5.53;2.30;;;46.40;1.00;;;;;;4971058;28;20445;-84
2022/08/10 11:40:05;;;;;;;2.77;2.30;;;46.60;1.00;;;;;;4972551;28;20420;-85
2022/08/10 11:42:42;;;;;;;7.27;2.80;;;46.60;1.00;;;;;;4958058;28;20434;-85
2022/08/10 11:45:15;;;;;;;2.63;2.43;;;46.40;1.00;;;;;;4955374;28;21564;-85
2022/08/10 11:47:51;;;;;;;11.73;3.00;;;46.20;1.00;;;;;;4971610;28;21187;-85
2022/08/10 11:50:27;;;;;;;7.43;2.27;;;45.70;1.00;;;;;;4973538;28;20467;-85
2022/08/10 11:52:58;;;;;;;4.27;2.50;;;45.90;1.00;;;;;;4980291;28;20467;-85
2022/08/10 11:55:28;;;;;;;2.80;2.10;;;46.30;1.00;;;;;;4969832;28;20971;-84
2022/08/10 11:58:00;;;;;;;4.63;2.30;;;46.00;1.00;;;;;;4969423;28;20435;-84
2022/08/10 12:00:35;;;;;;;3.73;2.83;;;45.60;1.00;;;;;;4970113;28;20467;-85
2022/08/10 12:03:07;;;;;;;3.53;2.60;;;45.60;1.00;;;;;;4975371;28;20949;-84
2022/08/10 12:05:38;;;;;;;2.93;2.50;;;45.70;1.00;;;;;;4954109;28;21026;-84
2022/08/10 12:08:04;;;;;;;4.30;2.80;;;45.60;1.00;;;;;;4972163;28;20431;-85
2022/08/10 12:10:33;;;;;;;10.30;2.40;;;45.70;1.00;;;;;;4954538;28;20488;-84
2022/08/10 12:13:15;;;;;;;3.90;2.50;;;45.60;1.00;;;;;;4968123;28;21214;-85
2022/08/10 12:15:57;;;;;;;8.60;2.90;;;45.80;1.00;;;;;;4955703;28;20538;-85
2022/08/10 12:18:44;;;;;;;5.50;2.60;;;45.80;1.00;;;;;;4950650;28;20434;-84
2022/08/10 12:21:19;;;;;;;3.30;2.63;;;45.90;1.00;;;;;;4971223;28;20469;-84
2022/08/10 12:23:49;;;;;;;4.37;3.30;;;45.60;1.00;;;;;;4950806;28;20869;-85
2022/08/10 12:26:48;;;;;;;7.63;2.97;;;45.10;1.00;;;;;;4970572;28;20463;-85
2022/08/10 12:29:41;;;;;;;6.03;3.13;;;45.10;1.00;;;;;;4968481;28;20439;-85
2022/08/10 12:32:41;;;;;;;5.07;3.00;;;44.90;1.00;;;;;;4956674;28;20477;-85
2022/08/10 12:35:31;;;;;;;5.03;3.00;;;45.20;1.00;;;;;;4974428;28;20482;-86
2022/08/10 12:38:05;;;;;;;5.97;2.60;;;45.50;1.00;;;;;;4958253;28;20497;-85
2022/08/10 12:40:37;;;;;;;3.73;2.67;;;45.70;1.00;;;;;;4976359;28;20437;-85
2022/08/10 12:43:14;;;;;;;4.60;2.80;;;45.70;1.00;;;;;;4977825;28;20434;-85
2022/08/10 12:45:55;;;;;;;5.73;2.20;;;45.30;1.00;;;;;;4958781;28;20549;-85
2022/08/10 12:48:59;;;;;;;5.47;3.20;;;45.20;1.00;;;;;;4975738;28;20458;-85
2022/08/10 12:51:29;;;;;;;9.73;2.73;;;45.20;1.00;;;;;;4973190;28;21111;-85
2022/08/10 12:54:16;;;;;;;6.00;3.10;;;45.00;1.00;;;;;;4975545;28;20427;-85
2022/08/10 12:56:49;;;;;;;3.40;2.30;;;45.00;1.00;;;;;;4975556;28;20510;-87
2022/08/10 12:59:17;;;;;;;2.40;2.20;;;44.60;1.00;;;;;;4972363;28;21119;-84
2022/08/10 13:01:49;;;;;;;2.93;2.27;;;44.00;1.00;;;;;;4978310;28;20440;-85
2022/08/10 13:04:16;;;;;;;5.00;2.97;;;43.70;1.00;;;;;;4957960;28;20451;-86
2022/08/10 13:06:49;;;;;;;3.50;2.50;;;43.60;1.00;;;;;;4975591;28;20802;-85
2022/08/10 13:09:21;;;;;;;3.40;2.40;;;43.80;1.00;;;;;;4970953;28;20474;-85
2022/08/10 13:11:53;;;;;;;3.77;2.80;;;43.70;1.00;;;;;;4976866;28;20462;-85
2022/08/10 13:14:27;;;;;;;4.23;2.43;;;43.10;1.00;;;;;;4970775;28;20455;-85
2022/08/10 13:16:56;;;;;;;6.90;2.27;;;42.80;1.00;;;;;;4978647;28;20435;-84
2022/08/10 13:19:25;;;;;;;3.67;2.70;;;42.30;1.00;;;;;;4974689;28;20454;-84
2022/08/10 13:21:51;;;;;;;8.57;2.60;;;42.30;1.00;;;;;;4968720;28;20543;-84
2022/08/10 13:24:26;;;;;;;4.37;2.33;;;42.00;1.00;;;;;;4975112;28;20451;-85